Time;durP1;ratioP1;P1;durP2;ratioP2;P2;SDS_P1;SDS_P2;PMS_P1;PMS_P2;Temp;Humidity;BMP_temperature;BMP_pressure;BME280_temperature;BME280_humidity;BME280_pressure;Samples;Min_cycle;Max_cycle;Signal;HPM_P1;HPM_P2
2022/10/28 00:02:04;;;;;;;17.88;6.80;;;16.50;99.90;;;;;;5048827;28;20083;-60
2022/10/28 00:04:31;;;;;;;22.27;7.25;;;16.50;99.90;;;;;;5032045;28;20052;-62
2022/10/28 00:06:58;;;;;;;16.83;7.18;;;16.40;99.90;;;;;;5050713;28;20660;-62
2022/10/28 00:09:25;;;;;;;19.48;6.95;;;16.40;99.90;;;;;;5035229;28;20069;-62
2022/10/28 00:11:51;;;;;;;19.27;6.88;;;16.40;99.90;;;;;;5032886;28;20052;-62
2022/10/28 00:14:18;;;;;;;16.58;6.40;;;16.40;99.90;;;;;;5049648;28;20037;-61
2022/10/28 00:16:45;;;;;;;13.48;6.50;;;16.40;99.90;;;;;;5050399;28;20041;-61
2022/10/28 00:19:12;;;;;;;14.48;7.05;;;16.30;99.90;;;;;;5051322;28;20075;-62
2022/10/28 00:21:38;;;;;;;22.52;7.70;;;16.30;99.90;;;;;;5052124;28;20063;-62
2022/10/28 00:24:05;;;;;;;18.38;7.32;;;16.30;99.90;;;;;;5050976;28;20041;-61
2022/10/28 00:26:32;;;;;;;18.08;7.30;;;16.30;99.90;;;;;;5049236;28;20041;-61
2022/10/28 00:28:59;;;;;;;15.50;6.82;;;16.30;99.90;;;;;;5032499;28;20052;-61
2022/10/28 00:31:26;;;;;;;16.83;7.22;;;16.30;99.90;;;;;;5031531;28;20045;-62
2022/10/28 00:33:52;;;;;;;18.80;7.13;;;16.30;99.90;;;;;;5031472;28;20121;-62
2022/10/28 00:36:19;;;;;;;24.48;7.35;;;16.30;99.90;;;;;;5031773;28;20069;-62
2022/10/28 00:38:46;;;;;;;15.80;7.45;;;16.20;99.90;;;;;;5032284;28;20427;-61
2022/10/28 00:41:13;;;;;;;16.30;7.15;;;16.20;99.90;;;;;;5051473;28;20045;-61
2022/10/28 00:43:39;;;;;;;22.58;6.95;;;16.20;99.90;;;;;;5042195;28;20052;-62
2022/10/28 00:46:06;;;;;;;15.40;6.68;;;16.20;99.90;;;;;;5036894;28;20045;-62
2022/10/28 00:48:33;;;;;;;16.10;6.95;;;16.20;99.90;;;;;;5036560;28;20129;-62
2022/10/28 00:50:59;;;;;;;20.33;6.90;;;16.20;99.90;;;;;;5036821;28;20116;-61
2022/10/28 00:53:26;;;;;;;20.90;7.60;;;16.20;99.90;;;;;;5037027;28;20239;-61
2022/10/28 00:55:53;;;;;;;19.60;7.30;;;16.20;99.90;;;;;;5055503;28;20426;-61
2022/10/28 00:58:20;;;;;;;20.38;7.25;;;16.10;99.90;;;;;;5056110;28;20125;-61
2022/10/28 01:00:46;;;;;;;16.60;6.70;;;16.10;99.90;;;;;;5056301;28;20152;-62
2022/10/28 01:03:13;;;;;;;18.80;6.97;;;16.10;99.90;;;;;;5054537;28;20044;-62
2022/10/28 01:05:40;;;;;;;21.52;7.20;;;16.10;99.90;;;;;;5056329;28;20128;-62
2022/10/28 01:08:06;;;;;;;18.45;7.30;;;16.10;99.90;;;;;;5056485;28;20480;-61
2022/10/28 01:10:33;;;;;;;18.35;6.88;;;16.10;99.90;;;;;;5056494;28;20476;-61
2022/10/28 01:13:00;;;;;;;18.70;7.15;;;16.10;99.90;;;;;;5048007;28;20481;-62
2022/10/28 01:15:26;;;;;;;15.55;6.88;;;16.00;99.90;;;;;;5034907;28;20053;-62
2022/10/28 01:17:53;;;;;;;21.38;7.50;;;16.00;99.90;;;;;;5036139;28;20553;-60
2022/10/28 01:20:20;;;;;;;23.10;7.05;;;16.00;99.90;;;;;;5055032;28;20049;-61
2022/10/28 01:22:46;;;;;;;19.17;7.50;;;16.00;99.90;;;;;;5056287;28;20128;-62
2022/10/28 01:25:13;;;;;;;17.88;8.02;;;16.00;99.90;;;;;;5055041;28;20392;-62
2022/10/28 01:27:40;;;;;;;22.70;8.25;;;16.00;99.90;;;;;;5054400;28;20033;-61
2022/10/28 01:30:07;;;;;;;17.85;7.70;;;16.00;99.90;;;;;;5055937;28;20408;-62
2022/10/28 01:32:33;;;;;;;23.23;8.25;;;16.00;99.90;;;;;;5055666;28;20051;-62
2022/10/28 01:35:00;;;;;;;20.10;7.88;;;15.90;99.90;;;;;;5054036;28;20106;-62
2022/10/28 01:37:27;;;;;;;19.38;8.40;;;15.90;99.90;;;;;;5055384;28;20094;-60
2022/10/28 01:39:53;;;;;;;21.95;7.47;;;15.90;99.90;;;;;;5055660;28;20558;-61
2022/10/28 01:42:20;;;;;;;22.80;7.80;;;15.90;99.90;;;;;;5055218;28;20041;-62
2022/10/28 01:44:47;;;;;;;20.65;7.78;;;15.90;99.90;;;;;;5047037;28;20046;-62
2022/10/28 01:47:13;;;;;;;16.73;8.00;;;15.90;99.90;;;;;;5036152;28;20064;-61
2022/10/28 01:49:41;;;;;;;19.48;8.00;;;15.90;99.90;;;;;;5035985;28;20076;-62
2022/10/28 01:52:08;;;;;;;20.40;8.80;;;15.90;99.90;;;;;;5035250;28;20095;-62
2022/10/28 01:54:35;;;;;;;23.98;9.30;;;15.90;99.90;;;;;;5040840;28;20080;-62
2022/10/28 01:57:01;;;;;;;19.92;8.48;;;15.90;99.90;;;;;;5055166;28;20040;-62
2022/10/28 01:59:28;;;;;;;26.08;9.77;;;15.90;99.90;;;;;;5055385;28;20067;-62
2022/10/28 02:01:55;;;;;;;22.17;8.95;;;15.90;99.90;;;;;;5055568;28;20076;-61
2022/10/28 02:04:21;;;;;;;25.00;9.32;;;16.00;99.90;;;;;;5050604;28;20033;-62
2022/10/28 02:06:48;;;;;;;22.05;9.18;;;16.00;99.90;;;;;;5035594;28;20175;-62
2022/10/28 02:09:15;;;;;;;22.40;9.27;;;15.90;99.90;;;;;;5033943;28;20386;-62
2022/10/28 02:11:42;;;;;;;21.88;8.02;;;15.90;99.90;;;;;;5034748;28;20107;-61
2022/10/28 02:14:08;;;;;;;18.90;8.20;;;15.90;99.90;;;;;;5035640;28;20044;-61
2022/10/28 02:16:35;;;;;;;16.85;8.20;;;15.90;99.90;;;;;;5035183;28;20055;-61
2022/10/28 02:19:02;;;;;;;16.55;7.72;;;15.90;99.90;;;;;;5034974;28;20092;-61
2022/10/28 02:21:28;;;;;;;20.33;7.43;;;15.90;99.90;;;;;;5035094;28;20072;-62
2022/10/28 02:23:55;;;;;;;20.13;8.60;;;15.90;99.90;;;;;;5034872;28;20104;-61
2022/10/28 02:26:22;;;;;;;21.80;8.13;;;15.80;99.90;;;;;;5055140;28;20047;-61
2022/10/28 02:28:48;;;;;;;18.17;7.85;;;15.80;99.90;;;;;;5054863;28;20040;-61
2022/10/28 02:31:15;;;;;;;18.60;8.13;;;15.80;99.90;;;;;;5053692;28;20037;-61
2022/10/28 02:33:42;;;;;;;16.10;7.78;;;15.80;99.90;;;;;;5054599;28;20128;-61
2022/10/28 02:36:09;;;;;;;21.35;7.57;;;15.70;99.90;;;;;;5036307;28;20053;-61
2022/10/28 02:38:35;;;;;;;21.00;8.52;;;15.70;99.90;;;;;;5034547;28;20136;-62
2022/10/28 02:41:02;;;;;;;21.15;8.95;;;15.70;99.90;;;;;;5034414;28;20504;-61
2022/10/28 02:43:29;;;;;;;20.88;7.93;;;15.70;99.90;;;;;;5049381;28;20044;-62
2022/10/28 02:45:55;;;;;;;18.85;8.63;;;15.70;99.90;;;;;;5052616;28;20029;-62
2022/10/28 02:48:22;;;;;;;19.98;8.52;;;15.60;99.90;;;;;;5054197;28;20376;-62
2022/10/28 02:50:49;;;;;;;23.55;9.00;;;15.60;99.90;;;;;;5054565;28;20127;-61
2022/10/28 02:53:17;;;;;;;17.05;8.93;;;15.60;99.90;;;;;;5053231;28;20131;-61
2022/10/28 02:55:44;;;;;;;18.98;9.10;;;15.60;99.90;;;;;;5040004;28;20408;-61
2022/10/28 02:58:12;;;;;;;23.95;9.73;;;15.60;99.90;;;;;;5053762;28;20056;-63
2022/10/28 03:00:38;;;;;;;19.77;9.65;;;15.60;99.90;;;;;;5054267;28;20037;-61
2022/10/28 03:03:05;;;;;;;22.50;11.20;;;15.60;99.90;;;;;;5052356;28;20067;-61
2022/10/28 03:05:32;;;;;;;22.85;9.60;;;15.60;99.90;;;;;;5054070;28;20041;-61
2022/10/28 03:07:58;;;;;;;23.60;10.40;;;15.60;99.90;;;;;;5052585;28;20369;-61
2022/10/28 03:10:25;;;;;;;19.60;9.75;;;15.70;99.90;;;;;;5033965;28;20054;-62
2022/10/28 03:12:52;;;;;;;19.90;9.77;;;15.70;99.90;;;;;;5069254;28;20103;-62
2022/10/28 03:15:19;;;;;;;24.25;9.52;;;15.60;99.90;;;;;;5053406;28;20098;-62
2022/10/28 03:17:45;;;;;;;19.73;8.73;;;15.60;99.90;;;;;;5053903;28;20073;-60
2022/10/28 03:20:12;;;;;;;22.65;9.85;;;15.60;99.90;;;;;;5052626;28;20098;-61
2022/10/28 03:22:39;;;;;;;20.00;9.35;;;15.60;99.90;;;;;;5043242;28;20068;-60
2022/10/28 03:25:06;;;;;;;19.92;8.23;;;15.60;99.90;;;;;;5034874;28;20112;-61
2022/10/28 03:27:32;;;;;;;23.33;9.48;;;15.60;99.90;;;;;;5032955;28;20440;-61
2022/10/28 03:29:59;;;;;;;22.25;9.07;;;15.60;99.90;;;;;;5033958;28;20045;-60
2022/10/28 03:32:26;;;;;;;22.23;8.93;;;15.70;99.90;;;;;;5033817;28;20124;-62
2022/10/28 03:34:52;;;;;;;24.88;9.68;;;15.70;99.90;;;;;;5036206;28;20061;-61
2022/10/28 03:37:19;;;;;;;23.35;9.63;;;15.70;99.90;;;;;;5053285;28;20551;-62
2022/10/28 03:39:46;;;;;;;19.70;9.18;;;15.70;99.90;;;;;;5053702;28;20111;-62
2022/10/28 03:42:12;;;;;;;21.83;9.00;;;15.70;99.90;;;;;;5044465;28;20045;-61
2022/10/28 03:44:39;;;;;;;18.65;9.18;;;15.70;99.90;;;;;;5043129;28;20041;-61
2022/10/28 03:47:06;;;;;;;18.55;8.55;;;15.70;99.90;;;;;;5035311;28;20132;-62
2022/10/28 03:49:33;;;;;;;24.00;8.57;;;15.80;99.90;;;;;;5053764;28;20033;-62
2022/10/28 03:52:00;;;;;;;12.65;7.07;;;15.80;99.90;;;;;;5053170;28;20040;-61
2022/10/28 03:54:26;;;;;;;23.00;7.80;;;15.80;99.90;;;;;;5053323;28;20053;-62
2022/10/28 03:56:53;;;;;;;21.20;7.07;;;15.80;99.90;;;;;;5042825;28;20497;-63
2022/10/28 03:59:20;;;;;;;18.90;7.45;;;15.80;99.90;;;;;;5034569;28;20128;-62
2022/10/28 04:01:46;;;;;;;18.10;7.22;;;15.80;99.90;;;;;;5034631;28;20519;-62
2022/10/28 04:04:13;;;;;;;17.15;7.18;;;15.80;99.90;;;;;;5033173;28;20052;-61
2022/10/28 04:06:40;;;;;;;19.40;7.45;;;15.90;99.90;;;;;;5034112;28;20045;-62
2022/10/28 04:09:07;;;;;;;21.17;7.85;;;15.90;99.90;;;;;;5032330;28;20619;-62
2022/10/28 04:11:33;;;;;;;21.15;8.10;;;16.00;99.90;;;;;;5033103;28;20050;-62
2022/10/28 04:14:00;;;;;;;22.83;8.05;;;16.00;99.90;;;;;;5034710;28;20046;-62
2022/10/28 04:16:27;;;;;;;19.88;7.03;;;16.10;99.90;;;;;;5033373;28;20076;-62
2022/10/28 04:18:54;;;;;;;21.95;7.38;;;16.10;99.90;;;;;;5036727;28;20527;-62
2022/10/28 04:21:20;;;;;;;20.65;6.60;;;16.20;99.90;;;;;;5038261;28;20045;-62
2022/10/28 04:23:47;;;;;;;22.48;6.95;;;16.20;99.90;;;;;;5044161;28;20045;-63
2022/10/28 04:26:14;;;;;;;23.08;7.43;;;16.20;99.90;;;;;;5057361;28;20053;-62
2022/10/28 04:28:40;;;;;;;17.70;6.63;;;16.30;99.90;;;;;;5052828;28;20116;-62
2022/10/28 04:31:08;;;;;;;18.88;7.28;;;16.30;99.90;;;;;;5038126;28;20116;-62
2022/10/28 04:33:35;;;;;;;18.13;7.45;;;16.30;99.90;;;;;;5037094;28;20460;-62
2022/10/28 04:36:02;;;;;;;27.98;8.38;;;16.30;99.90;;;;;;5036881;28;20132;-62
2022/10/28 04:38:29;;;;;;;26.73;8.88;;;16.30;99.90;;;;;;5035943;28;20137;-62
2022/10/28 04:40:55;;;;;;;17.98;7.63;;;16.30;99.90;;;;;;5038300;28;20042;-62
2022/10/28 04:43:22;;;;;;;19.48;8.10;;;16.30;99.90;;;;;;5037692;28;20042;-62
2022/10/28 04:45:49;;;;;;;25.05;8.15;;;16.30;99.90;;;;;;5036634;28;20033;-61
2022/10/28 04:48:15;;;;;;;23.17;8.75;;;16.30;99.90;;;;;;5036441;28;20124;-61
2022/10/28 04:50:42;;;;;;;21.27;8.65;;;16.30;99.90;;;;;;5036786;28;20507;-62
2022/10/28 04:53:09;;;;;;;22.80;8.35;;;16.30;99.90;;;;;;5053931;28;20047;-61
2022/10/28 04:55:36;;;;;;;23.73;9.27;;;16.30;99.90;;;;;;5054904;28;20353;-62
2022/10/28 04:58:02;;;;;;;22.77;9.07;;;16.30;99.90;;;;;;5056407;28;20064;-62
2022/10/28 05:00:29;;;;;;;23.10;9.07;;;16.30;99.90;;;;;;5054901;28;20037;-62
2022/10/28 05:02:56;;;;;;;23.45;8.48;;;16.40;99.90;;;;;;5048204;28;20044;-61
2022/10/28 05:05:24;;;;;;;23.17;8.98;;;16.40;99.90;;;;;;5055667;28;20538;-61
2022/10/28 05:07:51;;;;;;;26.52;9.32;;;16.40;99.90;;;;;;5054618;28;20496;-62
2022/10/28 05:10:18;;;;;;;23.63;8.60;;;16.40;99.90;;;;;;5054773;28;20163;-62
2022/10/28 05:12:45;;;;;;;19.55;8.18;;;16.40;99.90;;;;;;5056181;28;20068;-61
2022/10/28 05:15:12;;;;;;;22.77;8.25;;;16.40;99.90;;;;;;5056118;28;20136;-61
2022/10/28 05:17:39;;;;;;;18.38;7.18;;;16.40;99.90;;;;;;5054600;28;20439;-62
2022/10/28 05:20:05;;;;;;;23.63;8.45;;;16.40;99.90;;;;;;5052866;28;20045;-62
2022/10/28 05:22:32;;;;;;;19.63;7.68;;;16.30;99.90;;;;;;5054516;28;20493;-62
2022/10/28 05:24:59;;;;;;;21.73;8.00;;;16.40;99.90;;;;;;5052276;28;20388;-61
2022/10/28 05:27:25;;;;;;;20.90;6.95;;;16.40;99.90;;;;;;5054256;28;20140;-61
2022/10/28 05:29:52;;;;;;;20.33;7.85;;;16.40;99.90;;;;;;5054675;28;20467;-61
2022/10/28 05:32:19;;;;;;;21.42;7.75;;;16.40;99.90;;;;;;5054221;28;20113;-61
2022/10/28 05:34:45;;;;;;;18.27;6.75;;;16.40;99.90;;;;;;5055847;28;20427;-61
2022/10/28 05:37:12;;;;;;;18.60;7.35;;;16.40;99.90;;;;;;5055651;28;20045;-61
2022/10/28 05:39:39;;;;;;;20.23;6.97;;;16.40;99.90;;;;;;5055133;28;20484;-62
2022/10/28 05:42:06;;;;;;;20.95;7.72;;;16.50;99.90;;;;;;5053752;28;20045;-61
2022/10/28 05:44:32;;;;;;;16.73;6.85;;;16.40;99.90;;;;;;5055495;28;20033;-61
2022/10/28 05:46:59;;;;;;;18.15;7.05;;;16.50;99.90;;;;;;5055702;28;20041;-61
2022/10/28 05:49:26;;;;;;;24.83;7.05;;;16.50;99.90;;;;;;5054074;28;20036;-61
2022/10/28 05:51:52;;;;;;;15.10;6.25;;;16.50;99.90;;;;;;5050986;28;20048;-61
2022/10/28 05:54:19;;;;;;;19.85;6.68;;;16.50;99.90;;;;;;5053542;28;20120;-61
2022/10/28 05:56:46;;;;;;;19.05;7.32;;;16.50;99.90;;;;;;5055235;28;20041;-62
2022/10/28 05:59:16;;;;;;;14.73;5.72;;;16.50;99.90;;;;;;5053659;28;20054;-62
2022/10/28 06:01:42;;;;;;;16.60;6.32;;;16.50;99.90;;;;;;5048962;28;20049;-62
2022/10/28 06:04:09;;;;;;;17.45;5.97;;;16.50;99.90;;;;;;5049849;28;20120;-62
2022/10/28 06:06:36;;;;;;;18.95;6.50;;;16.50;99.90;;;;;;5055306;28;20045;-62
2022/10/28 06:09:03;;;;;;;19.45;6.03;;;16.50;99.90;;;;;;5051716;28;20120;-62
2022/10/28 06:11:30;;;;;;;17.58;6.18;;;16.50;99.90;;;;;;5051333;28;20083;-62
2022/10/28 06:13:56;;;;;;;20.38;6.00;;;16.40;99.90;;;;;;5053155;28;20071;-62
2022/10/28 06:16:23;;;;;;;22.65;6.60;;;16.40;99.90;;;;;;5051829;28;20083;-63
2022/10/28 06:18:50;;;;;;;23.30;6.32;;;16.40;99.90;;;;;;5053037;28;20488;-62
2022/10/28 06:21:16;;;;;;;19.00;6.93;;;16.40;99.90;;;;;;5049056;28;20116;-62
2022/10/28 06:23:43;;;;;;;18.85;6.35;;;16.40;99.90;;;;;;5034716;28;20111;-62
2022/10/28 06:26:10;;;;;;;25.98;6.88;;;16.30;99.90;;;;;;5041430;28;20059;-62
2022/10/28 06:28:36;;;;;;;16.08;6.40;;;16.30;99.90;;;;;;5054836;28;20067;-62
2022/10/28 06:31:03;;;;;;;22.10;6.10;;;16.30;99.90;;;;;;5051635;28;20468;-62
2022/10/28 06:33:30;;;;;;;18.30;6.28;;;16.30;99.90;;;;;;5038248;28;20116;-62
2022/10/28 06:35:57;;;;;;;19.70;6.20;;;16.30;99.90;;;;;;5034707;28;20046;-62
2022/10/28 06:38:23;;;;;;;19.45;6.43;;;16.30;99.90;;;;;;5036029;28;20120;-62
2022/10/28 06:40:50;;;;;;;20.13;5.88;;;16.30;99.90;;;;;;5035632;28;20045;-62
2022/10/28 06:43:19;;;;;;;24.20;6.25;;;16.40;99.90;;;;;;5034076;28;20045;-62
2022/10/28 06:45:47;;;;;;;15.32;5.60;;;16.30;99.90;;;;;;5035571;28;20039;-61
2022/10/28 06:48:13;;;;;;;19.73;6.07;;;16.30;99.90;;;;;;5034778;28;20041;-62
2022/10/28 06:50:40;;;;;;;26.45;5.75;;;16.40;99.90;;;;;;5035703;28;20120;-62
2022/10/28 06:53:07;;;;;;;28.55;5.75;;;16.40;99.90;;;;;;5034895;28;20068;-62
2022/10/28 06:55:34;;;;;;;15.90;5.10;;;16.40;99.90;;;;;;5034970;28;20076;-62
2022/10/28 06:58:00;;;;;;;21.92;6.32;;;16.40;99.90;;;;;;5033611;28;20107;-62
2022/10/28 07:00:27;;;;;;;19.65;5.95;;;16.40;99.90;;;;;;5034602;28;20362;-62
2022/10/28 07:02:54;;;;;;;20.70;6.03;;;16.50;99.90;;;;;;5040296;28;20041;-62
2022/10/28 07:05:21;;;;;;;21.70;5.85;;;16.50;99.90;;;;;;5034756;28;20045;-62
2022/10/28 07:07:48;;;;;;;25.10;5.93;;;16.50;99.90;;;;;;5049771;28;20061;-62
2022/10/28 07:10:15;;;;;;;35.25;7.93;;;16.50;99.90;;;;;;5049370;28;20124;-62
2022/10/28 07:12:41;;;;;;;23.05;6.30;;;16.50;99.90;;;;;;5050843;28;20094;-62
2022/10/28 07:15:08;;;;;;;25.17;5.88;;;16.60;99.90;;;;;;5050251;28;20499;-62
2022/10/28 07:17:35;;;;;;;24.58;6.07;;;16.60;99.90;;;;;;5048600;28;20468;-61
2022/10/28 07:20:01;;;;;;;25.08;5.95;;;16.60;99.90;;;;;;5048926;28;20089;-61
2022/10/28 07:22:28;;;;;;;21.95;6.50;;;16.60;99.90;;;;;;5051463;28;20787;-62
2022/10/28 07:24:55;;;;;;;24.33;6.00;;;16.60;99.90;;;;;;5049871;28;20095;-62
2022/10/28 07:27:21;;;;;;;28.85;6.93;;;16.60;99.90;;;;;;5050712;28;20065;-62
2022/10/28 07:29:48;;;;;;;25.88;6.38;;;16.60;99.90;;;;;;5038105;28;20046;-62
2022/10/28 07:32:15;;;;;;;28.55;7.28;;;16.60;99.90;;;;;;5035003;28;20045;-62
2022/10/28 07:34:42;;;;;;;21.38;6.47;;;16.70;99.90;;;;;;5034865;28;20065;-62
2022/10/28 07:37:09;;;;;;;22.33;5.57;;;16.70;99.90;;;;;;5039271;28;20102;-62
2022/10/28 07:39:37;;;;;;;21.73;5.72;;;16.70;99.90;;;;;;5052075;28;20043;-62
2022/10/28 07:42:04;;;;;;;21.92;6.30;;;16.70;99.90;;;;;;5057988;28;20040;-62
2022/10/28 07:44:30;;;;;;;17.65;5.32;;;16.70;99.90;;;;;;5046509;28;20060;-62
2022/10/28 07:46:57;;;;;;;44.20;9.23;;;16.70;99.90;;;;;;5046325;28;20129;-62
2022/10/28 07:49:24;;;;;;;28.33;6.45;;;16.70;99.90;;;;;;5046149;28;20421;-61
2022/10/28 07:51:51;;;;;;;33.05;7.15;;;16.70;99.90;;;;;;5053053;28;20135;-62
2022/10/28 07:54:17;;;;;;;40.53;8.55;;;16.70;99.90;;;;;;5045995;28;20140;-61
2022/10/28 07:56:44;;;;;;;17.00;5.90;;;16.80;99.90;;;;;;5055759;28;20431;-62
2022/10/28 07:59:11;;;;;;;22.73;7.07;;;16.80;99.90;;;;;;5054675;28;20121;-62
2022/10/28 08:01:37;;;;;;;24.50;6.50;;;16.80;99.90;;;;;;5052544;28;20544;-62
2022/10/28 08:04:04;;;;;;;25.95;6.65;;;16.80;99.90;;;;;;5056366;28;20047;-62
2022/10/28 08:06:31;;;;;;;24.05;6.75;;;16.80;99.90;;;;;;5055818;28;20072;-61
2022/10/28 08:08:58;;;;;;;33.40;7.97;;;16.90;99.90;;;;;;5056467;28;20516;-62
2022/10/28 08:11:24;;;;;;;76.68;7.75;;;16.90;99.90;;;;;;5053320;28;20053;-62
2022/10/28 08:13:51;;;;;;;24.75;6.40;;;16.90;99.90;;;;;;5055457;28;20091;-63
2022/10/28 08:16:18;;;;;;;35.40;6.93;;;16.90;99.90;;;;;;5054652;28;20060;-63
2022/10/28 08:18:45;;;;;;;60.97;8.30;;;17.00;99.90;;;;;;5053746;28;20044;-62
2022/10/28 08:21:12;;;;;;;35.47;6.97;;;17.00;99.90;;;;;;5052680;28;20480;-63
2022/10/28 08:23:40;;;;;;;36.40;6.22;;;17.00;99.90;;;;;;5054198;28;20048;-62
2022/10/28 08:26:06;;;;;;;22.20;5.85;;;17.10;99.90;;;;;;5052491;28;20133;-62
2022/10/28 08:28:33;;;;;;;86.97;9.57;;;17.10;99.90;;;;;;5055796;28;20044;-62
2022/10/28 08:31:01;;;;;;;30.08;6.07;;;17.20;99.90;;;;;;5055773;28;20051;-62
2022/10/28 08:33:35;;;;;;;;;;;17.30;99.90;;;;;;5049249;28;20123;-62
2022/10/28 08:36:02;;;;;;;25.02;5.10;;;17.30;99.90;;;;;;5055696;28;19967;-61
2022/10/28 08:38:28;;;;;;;29.63;5.95;;;17.40;99.90;;;;;;5051275;28;20428;-62
2022/10/28 08:40:55;;;;;;;31.05;6.32;;;17.40;99.90;;;;;;5055196;28;20032;-62
2022/10/28 08:43:22;;;;;;;38.35;6.15;;;17.40;99.90;;;;;;5055247;28;20460;-62
2022/10/28 08:46:09;;;;;;;24.25;6.22;;;17.50;99.90;;;;;;5050441;28;20041;-63
2022/10/28 08:48:35;;;;;;;25.92;6.03;;;17.50;99.90;;;;;;5050347;28;20486;-63
2022/10/28 08:51:02;;;;;;;37.20;6.90;;;17.60;99.90;;;;;;5055877;28;20037;-62
2022/10/28 08:53:29;;;;;;;31.05;6.22;;;17.60;99.90;;;;;;5049571;28;20037;-62
2022/10/28 08:55:56;;;;;;;22.30;5.28;;;17.60;99.90;;;;;;5052816;28;20102;-62
2022/10/28 08:58:22;;;;;;;27.02;6.43;;;17.60;99.90;;;;;;5050495;28;20051;-62
2022/10/28 09:00:49;;;;;;;29.48;5.68;;;17.70;99.90;;;;;;5048949;28;20052;-62
2022/10/28 09:03:16;;;;;;;28.48;5.20;;;17.70;99.90;;;;;;5054619;28;20114;-61
2022/10/28 09:05:43;;;;;;;23.33;5.80;;;17.70;99.90;;;;;;5055601;28;20083;-62
2022/10/28 09:08:09;;;;;;;34.47;6.30;;;17.70;99.90;;;;;;5053897;28;20055;-62
2022/10/28 09:10:36;;;;;;;16.58;4.45;;;17.70;99.90;;;;;;5051590;28;20128;-61
2022/10/28 09:13:03;;;;;;;35.78;5.75;;;17.70;99.90;;;;;;5055625;28;20500;-63
2022/10/28 09:15:30;;;;;;;34.42;6.50;;;17.70;99.90;;;;;;5055302;28;20047;-63
2022/10/28 09:17:58;;;;;;;23.20;5.18;;;17.70;99.90;;;;;;5055277;28;20080;-62
2022/10/28 09:20:25;;;;;;;24.65;5.07;;;17.80;99.90;;;;;;5055108;28;20041;-62
2022/10/28 09:22:51;;;;;;;51.30;7.15;;;17.90;99.90;;;;;;5055346;28;20052;-62
2022/10/28 09:25:19;;;;;;;34.83;5.03;;;17.90;99.90;;;;;;5060075;28;20065;-62
2022/10/28 09:27:45;;;;;;;22.80;4.25;;;17.90;99.90;;;;;;5055321;28;20045;-62
2022/10/28 09:30:12;;;;;;;22.17;5.22;;;18.00;99.90;;;;;;5055038;28;20368;-63
2022/10/28 09:32:39;;;;;;;29.77;4.97;;;18.00;99.90;;;;;;5055254;28;20041;-62
2022/10/28 09:35:05;;;;;;;18.13;4.10;;;18.00;99.90;;;;;;5054940;28;20067;-61
2022/10/28 09:37:32;;;;;;;18.15;4.50;;;18.00;99.90;;;;;;5055113;28;20049;-62
2022/10/28 09:39:59;;;;;;;24.83;5.05;;;18.10;99.90;;;;;;5055306;28;20523;-62
2022/10/28 09:42:26;;;;;;;15.25;4.32;;;18.10;99.90;;;;;;5055187;28;20068;-62
2022/10/28 09:44:52;;;;;;;18.30;4.32;;;18.20;99.90;;;;;;5052411;28;20136;-62
2022/10/28 09:47:19;;;;;;;17.77;3.72;;;18.20;99.90;;;;;;5054439;28;20098;-62
2022/10/28 09:49:46;;;;;;;12.38;3.25;;;18.20;99.90;;;;;;5045379;28;20040;-62
2022/10/28 09:52:13;;;;;;;19.88;3.17;;;18.20;99.90;;;;;;5054466;28;20442;-62
2022/10/28 09:54:41;;;;;;;11.68;3.03;;;18.20;99.90;;;;;;5053490;28;20037;-61
2022/10/28 09:57:08;;;;;;;11.13;2.63;;;18.20;99.90;;;;;;5053329;28;20116;-63
2022/10/28 09:59:39;;;;;;;10.75;2.70;;;18.20;99.90;;;;;;5048631;28;20087;-62
2022/10/28 10:02:05;;;;;;;9.23;2.88;;;18.20;99.90;;;;;;5054436;28;20039;-62
2022/10/28 10:04:34;;;;;;;13.73;2.53;;;18.20;99.90;;;;;;5050202;28;20059;-62
2022/10/28 10:07:01;;;;;;;9.15;1.83;;;18.20;99.90;;;;;;5052603;28;20040;-62
2022/10/28 10:09:27;;;;;;;10.93;2.50;;;18.20;99.90;;;;;;5049579;28;20111;-62
2022/10/28 10:11:54;;;;;;;7.53;2.10;;;18.20;99.90;;;;;;5053754;28;20472;-62
2022/10/28 10:14:21;;;;;;;11.40;1.80;;;18.20;99.90;;;;;;5047329;28;20048;-62
2022/10/28 10:16:48;;;;;;;8.00;2.30;;;18.20;99.90;;;;;;5052186;28;20099;-60
2022/10/28 10:19:14;;;;;;;9.80;1.83;;;18.10;99.90;;;;;;5052896;28;20051;-60
2022/10/28 10:21:42;;;;;;;6.78;1.67;;;18.10;99.90;;;;;;5051240;28;20483;-62
2022/10/28 10:24:08;;;;;;;9.13;2.03;;;18.10;99.90;;;;;;5053690;28;20103;-62
2022/10/28 10:26:35;;;;;;;7.82;1.70;;;18.10;99.90;;;;;;5053786;28;20119;-62
2022/10/28 10:29:02;;;;;;;14.40;5.82;;;18.10;99.90;;;;;;5053087;28;20087;-61
2022/10/28 10:31:28;;;;;;;9.45;2.38;;;18.10;99.90;;;;;;5054028;28;20365;-61
2022/10/28 10:33:55;;;;;;;6.70;1.65;;;18.10;99.90;;;;;;5053897;28;20496;-61
2022/10/28 10:36:30;;;;;;;7.40;1.40;;;18.10;99.90;;;;;;5054061;28;20055;-62
2022/10/28 10:38:57;;;;;;;9.50;1.83;;;18.00;99.90;;;;;;5052131;28;20041;-61
2022/10/28 10:41:23;;;;;;;6.88;1.65;;;18.00;99.90;;;;;;5048108;28;20115;-61
2022/10/28 10:43:50;;;;;;;11.10;2.17;;;18.00;99.90;;;;;;5050692;28;20041;-62
2022/10/28 10:46:17;;;;;;;8.10;1.95;;;18.00;99.90;;;;;;5043708;28;20037;-61
2022/10/28 10:48:44;;;;;;;7.78;1.65;;;18.00;99.90;;;;;;5048842;28;20041;-61
2022/10/28 10:51:10;;;;;;;6.00;1.60;;;18.00;99.90;;;;;;5053264;28;20041;-61
2022/10/28 10:53:37;;;;;;;9.57;2.20;;;17.90;99.90;;;;;;5053745;28;20436;-61
2022/10/28 10:56:04;;;;;;;13.02;1.80;;;17.90;99.90;;;;;;5053363;28;20045;-61
2022/10/28 10:58:30;;;;;;;5.85;1.80;;;17.90;99.90;;;;;;5052771;28;20478;-60
2022/10/28 11:00:57;;;;;;;11.30;1.80;;;18.00;99.90;;;;;;5043783;28;20071;-60
2022/10/28 11:03:24;;;;;;;9.38;2.35;;;18.10;99.90;;;;;;5053131;28;20045;-61
2022/10/28 11:05:50;;;;;;;15.40;2.20;;;18.10;99.90;;;;;;5052860;28;20037;-61
2022/10/28 11:08:37;;;;;;;9.13;1.88;;;18.20;99.90;;;;;;5050880;28;20047;-61
2022/10/28 11:11:03;;;;;;;10.40;1.98;;;18.30;99.90;;;;;;5053076;28;20496;-61
2022/10/28 11:13:30;;;;;;;10.65;2.22;;;18.40;99.90;;;;;;5052900;28;20460;-61
2022/10/28 11:15:57;;;;;;;7.78;1.60;;;18.50;99.90;;;;;;5049419;28;20037;-60
2022/10/28 11:18:24;;;;;;;8.18;1.67;;;18.50;99.90;;;;;;5050879;28;20124;-62
2022/10/28 11:20:50;;;;;;;11.15;1.75;;;18.60;99.90;;;;;;5045428;28;20033;-61
2022/10/28 11:23:17;;;;;;;7.82;1.48;;;18.70;99.90;;;;;;5039696;28;20041;-62
2022/10/28 11:25:44;;;;;;;10.20;1.77;;;18.80;99.90;;;;;;5047952;28;20043;-62
2022/10/28 11:28:11;;;;;;;10.60;2.33;;;18.90;99.90;;;;;;5047758;28;20049;-61
2022/10/28 11:30:37;;;;;;;9.27;2.05;;;18.90;99.90;;;;;;5040537;28;20071;-60
2022/10/28 11:33:08;;;;;;;9.85;2.10;;;18.90;99.90;;;;;;5053056;28;20057;-61
2022/10/28 11:35:55;;;;;;;7.57;1.98;;;18.90;99.90;;;;;;5048603;28;20094;-61
2022/10/28 11:38:22;;;;;;;9.85;2.08;;;18.80;99.90;;;;;;5052510;28;20419;-62
2022/10/28 11:40:48;;;;;;;9.00;1.90;;;18.70;99.90;;;;;;5053161;28;20128;-62
2022/10/28 11:43:15;;;;;;;7.90;1.90;;;18.70;99.90;;;;;;5053136;28;20063;-62
2022/10/28 11:45:42;;;;;;;8.40;2.25;;;18.60;99.90;;;;;;5052886;28;20037;-63
2022/10/28 11:48:14;;;;;;;9.43;1.92;;;18.60;99.90;;;;;;5053028;28;20043;-61
2022/10/28 11:50:40;;;;;;;7.45;2.00;;;18.70;99.90;;;;;;5053137;28;20124;-61
2022/10/28 11:53:07;;;;;;;8.65;2.20;;;18.70;99.90;;;;;;5051941;28;20049;-62
2022/10/28 11:55:34;;;;;;;8.63;2.20;;;18.70;99.90;;;;;;5052625;28;20049;-63
2022/10/28 11:58:01;;;;;;;11.52;2.30;;;18.70;99.90;;;;;;5052918;28;20045;-62
2022/10/28 12:00:27;;;;;;;9.45;2.47;;;18.70;99.90;;;;;;5053090;28;20052;-62
2022/10/28 12:02:54;;;;;;;15.75;2.40;;;18.70;99.90;;;;;;5052728;28;20495;-61
2022/10/28 12:05:22;;;;;;;11.35;2.55;;;18.80;99.90;;;;;;5052696;28;20075;-62
2022/10/28 12:07:49;;;;;;;12.82;2.55;;;18.90;99.90;;;;;;5052637;28;20128;-62
2022/10/28 12:10:15;;;;;;;9.27;2.20;;;18.90;99.90;;;;;;5052958;28;20049;-62
2022/10/28 12:12:42;;;;;;;10.77;2.20;;;19.00;99.90;;;;;;5052445;28;20106;-61
2022/10/28 12:15:15;;;;;;;9.43;2.08;;;19.00;99.90;;;;;;5052722;28;20041;-60
2022/10/28 12:17:42;;;;;;;13.50;2.40;;;19.00;99.90;;;;;;5052597;28;20045;-61
2022/10/28 12:20:09;;;;;;;9.45;2.40;;;19.00;99.90;;;;;;5052636;28;20065;-62
2022/10/28 12:22:36;;;;;;;11.63;2.70;;;19.00;99.90;;;;;;5051189;28;20079;-61
2022/10/28 12:25:02;;;;;;;10.55;2.75;;;19.00;99.90;;;;;;5052500;28;20066;-62
2022/10/28 12:27:29;;;;;;;13.98;2.85;;;19.00;99.90;;;;;;5052606;28;20077;-61
2022/10/28 12:29:56;;;;;;;8.50;2.17;;;19.00;99.90;;;;;;5044576;28;20069;-61
2022/10/28 12:32:22;;;;;;;10.73;2.30;;;19.00;99.90;;;;;;5051388;28;20065;-62
2022/10/28 12:34:49;;;;;;;8.52;2.10;;;19.00;99.90;;;;;;5052344;28;20136;-61
2022/10/28 12:37:16;;;;;;;10.13;2.30;;;19.00;99.90;;;;;;5052792;28;20065;-61